sensor_id;sensor_type;location;lat;lon;timestamp;temperature;humidity
54409;DHT22;40315;48.620;9.828;2022-12-18T00:01:24;-6.90;99.90
54409;DHT22;40315;48.620;9.828;2022-12-18T00:03:52;-6.90;99.90
54409;DHT22;40315;48.620;9.828;2022-12-18T00:06:24;-6.90;99.90
54409;DHT22;40315;48.620;9.828;2022-12-18T00:08:55;-6.90;99.90
54409;DHT22;40315;48.620;9.828;2022-12-18T00:11:28;-7.00;99.90
54409;DHT22;40315;48.620;9.828;2022-12-18T00:13:57;-6.90;99.90
54409;DHT22;40315;48.620;9.828;2022-12-18T00:16:26;-6.90;99.90
54409;DHT22;40315;48.620;9.828;2022-12-18T00:18:56;-7.00;99.90
54409;DHT22;40315;48.620;9.828;2022-12-18T00:21:26;-7.00;99.90
54409;DHT22;40315;48.620;9.828;2022-12-18T00:23:54;-5.60;99.90
54409;DHT22;40315;48.620;9.828;2022-12-18T00:26:23;-7.00;99.90
54409;DHT22;40315;48.620;9.828;2022-12-18T00:28:58;-7.00;99.90
54409;DHT22;40315;48.620;9.828;2022-12-18T00:31:27;-7.00;99.90
54409;DHT22;40315;48.620;9.828;2022-12-18T00:33:54;-7.00;99.90
54409;DHT22;40315;48.620;9.828;2022-12-18T00:36:24;-7.00;99.90
54409;DHT22;40315;48.620;9.828;2022-12-18T00:38:54;-7.00;99.90
54409;DHT22;40315;48.620;9.828;2022-12-18T00:41:22;-7.00;99.90
54409;DHT22;40315;48.620;9.828;2022-12-18T00:44:05;-7.00;99.90
54409;DHT22;40315;48.620;9.828;2022-12-18T00:46:36;-6.00;99.90
54409;DHT22;40315;48.620;9.828;2022-12-18T00:49:03;-7.10;99.90
54409;DHT22;40315;48.620;9.828;2022-12-18T00:51:30;-7.00;99.90
54409;DHT22;40315;48.620;9.828;2022-12-18T00:53:57;-7.10;99.90
54409;DHT22;40315;48.620;9.828;2022-12-18T00:56:24;-7.10;99.90
54409;DHT22;40315;48.620;9.828;2022-12-18T00:58:52;-7.20;99.90
54409;DHT22;40315;48.620;9.828;2022-12-18T01:01:19;-7.20;99.90
54409;DHT22;40315;48.620;9.828;2022-12-18T01:03:47;-7.10;99.90
54409;DHT22;40315;48.620;9.828;2022-12-18T01:06:16;-7.10;99.90
54409;DHT22;40315;48.620;9.828;2022-12-18T01:08:43;-7.10;99.90
54409;DHT22;40315;48.620;9.828;2022-12-18T01:11:14;-7.10;99.90
54409;DHT22;40315;48.620;9.828;2022-12-18T01:13:42;-7.20;99.90
54409;DHT22;40315;48.620;9.828;2022-12-18T01:16:11;-7.10;99.90
54409;DHT22;40315;48.620;9.828;2022-12-18T01:18:39;-7.20;99.90
54409;DHT22;40315;48.620;9.828;2022-12-18T01:21:09;-7.20;99.90
54409;DHT22;40315;48.620;9.828;2022-12-18T01:23:36;-7.20;99.90
54409;DHT22;40315;48.620;9.828;2022-12-18T01:26:05;-7.20;99.90
54409;DHT22;40315;48.620;9.828;2022-12-18T01:28:34;-7.30;99.90
54409;DHT22;40315;48.620;9.828;2022-12-18T01:31:16;-7.30;99.90
54409;DHT22;40315;48.620;9.828;2022-12-18T01:33:43;-7.40;99.90
54409;DHT22;40315;48.620;9.828;2022-12-18T01:36:16;-7.40;99.90
54409;DHT22;40315;48.620;9.828;2022-12-18T01:38:44;-7.40;99.90
54409;DHT22;40315;48.620;9.828;2022-12-18T01:41:11;-7.40;99.90
54409;DHT22;40315;48.620;9.828;2022-12-18T01:47:20;-7.40;99.90
54409;DHT22;40315;48.620;9.828;2022-12-18T01:49:49;-7.40;99.90
54409;DHT22;40315;48.620;9.828;2022-12-18T01:52:22;-7.40;99.90
54409;DHT22;40315;48.620;9.828;2022-12-18T01:54:51;-7.40;99.90
54409;DHT22;40315;48.620;9.828;2022-12-18T01:57:18;-7.40;99.90
54409;DHT22;40315;48.620;9.828;2022-12-18T01:59:47;-7.40;99.90
54409;DHT22;40315;48.620;9.828;2022-12-18T02:02:16;-7.30;99.90
54409;DHT22;40315;48.620;9.828;2022-12-18T02:04:43;-7.40;99.90
54409;DHT22;40315;48.620;9.828;2022-12-18T02:07:17;-7.40;99.90
54409;DHT22;40315;48.620;9.828;2022-12-18T02:09:50;-7.40;99.90
54409;DHT22;40315;48.620;9.828;2022-12-18T02:12:23;-7.40;99.90
54409;DHT22;40315;48.620;9.828;2022-12-18T02:14:57;-7.40;99.90
54409;DHT22;40315;48.620;9.828;2022-12-18T02:17:29;-6.30;99.90
54409;DHT22;40315;48.620;9.828;2022-12-18T02:20:08;-7.30;99.90
54409;DHT22;40315;48.620;9.828;2022-12-18T02:22:49;-7.30;99.90
54409;DHT22;40315;48.620;9.828;2022-12-18T02:25:30;-7.30;99.90
54409;DHT22;40315;48.620;9.828;2022-12-18T02:28:04;-7.30;99.90
54409;DHT22;40315;48.620;9.828;2022-12-18T02:30:35;-7.30;99.90
54409;DHT22;40315;48.620;9.828;2022-12-18T02:33:05;-4.50;99.90
54409;DHT22;40315;48.620;9.828;2022-12-18T02:35:34;-7.20;99.90
54409;DHT22;40315;48.620;9.828;2022-12-18T02:38:05;-7.20;99.90
54409;DHT22;40315;48.620;9.828;2022-12-18T02:40:36;-7.10;99.90
54409;DHT22;40315;48.620;9.828;2022-12-18T02:45:45;-7.10;99.90
54409;DHT22;40315;48.620;9.828;2022-12-18T02:50:47;-7.00;99.90
54409;DHT22;40315;48.620;9.828;2022-12-18T02:53:24;-7.00;99.90
54409;DHT22;40315;48.620;9.828;2022-12-18T02:56:01;-7.00;99.90
54409;DHT22;40315;48.620;9.828;2022-12-18T02:58:38;-6.90;99.90
54409;DHT22;40315;48.620;9.828;2022-12-18T03:01:19;-6.90;99.90
54409;DHT22;40315;48.620;9.828;2022-12-18T03:03:54;-6.90;99.90
54409;DHT22;40315;48.620;9.828;2022-12-18T03:06:26;-7.00;99.90
54409;DHT22;40315;48.620;9.828;2022-12-18T03:09:00;-6.90;99.90
54409;DHT22;40315;48.620;9.828;2022-12-18T03:11:32;-6.90;99.90
54409;DHT22;40315;48.620;9.828;2022-12-18T03:14:18;-6.90;99.90
54409;DHT22;40315;48.620;9.828;2022-12-18T03:16:53;-6.90;99.90
54409;DHT22;40315;48.620;9.828;2022-12-18T03:19:23;-6.80;99.90
54409;DHT22;40315;48.620;9.828;2022-12-18T03:21:59;-6.80;99.90
54409;DHT22;40315;48.620;9.828;2022-12-18T03:24:33;-6.70;99.90
54409;DHT22;40315;48.620;9.828;2022-12-18T03:27:08;-6.90;99.90
54409;DHT22;40315;48.620;9.828;2022-12-18T03:29:40;-6.70;99.90
54409;DHT22;40315;48.620;9.828;2022-12-18T03:32:17;-6.70;99.90
54409;DHT22;40315;48.620;9.828;2022-12-18T03:34:47;-6.60;99.90
54409;DHT22;40315;48.620;9.828;2022-12-18T03:37:18;-6.60;99.90
54409;DHT22;40315;48.620;9.828;2022-12-18T03:39:45;-6.60;99.90
54409;DHT22;40315;48.620;9.828;2022-12-18T03:42:17;-6.60;99.90
54409;DHT22;40315;48.620;9.828;2022-12-18T03:44:57;-6.60;99.90
54409;DHT22;40315;48.620;9.828;2022-12-18T03:47:30;-6.90;99.90
54409;DHT22;40315;48.620;9.828;2022-12-18T03:50:11;-6.50;99.90
54409;DHT22;40315;48.620;9.828;2022-12-18T03:52:48;-6.50;99.90
54409;DHT22;40315;48.620;9.828;2022-12-18T03:55:18;-6.50;99.90
54409;DHT22;40315;48.620;9.828;2022-12-18T03:57:51;-6.50;99.90
54409;DHT22;40315;48.620;9.828;2022-12-18T04:03:04;-6.40;99.90
54409;DHT22;40315;48.620;9.828;2022-12-18T04:05:40;-6.40;99.90
54409;DHT22;40315;48.620;9.828;2022-12-18T04:08:09;-6.40;99.90
54409;DHT22;40315;48.620;9.828;2022-12-18T04:10:40;-6.00;99.90
54409;DHT22;40315;48.620;9.828;2022-12-18T04:18:11;-6.30;99.90
54409;DHT22;40315;48.620;9.828;2022-12-18T04:20:42;-6.30;99.90
54409;DHT22;40315;48.620;9.828;2022-12-18T04:25:38;-6.20;99.90
54409;DHT22;40315;48.620;9.828;2022-12-18T04:28:10;-6.30;99.90
54409;DHT22;40315;48.620;9.828;2022-12-18T04:33:11;-6.20;99.90
54409;DHT22;40315;48.620;9.828;2022-12-18T04:35:38;-6.20;99.90
54409;DHT22;40315;48.620;9.828;2022-12-18T04:40:35;-6.20;99.90
54409;DHT22;40315;48.620;9.828;2022-12-18T04:43:08;-6.30;99.90
54409;DHT22;40315;48.620;9.828;2022-12-18T04:45:35;-6.30;99.90
54409;DHT22;40315;48.620;9.828;2022-12-18T04:48:03;-6.20;99.90
54409;DHT22;40315;48.620;9.828;2022-12-18T04:53:01;-6.20;99.90
54409;DHT22;40315;48.620;9.828;2022-12-18T04:55:28;-6.30;99.90
54409;DHT22;40315;48.620;9.828;2022-12-18T04:57:57;-6.30;99.90
54409;DHT22;40315;48.620;9.828;2022-12-18T05:00:26;-6.20;99.90
54409;DHT22;40315;48.620;9.828;2022-12-18T05:02:53;-6.30;99.90
54409;DHT22;40315;48.620;9.828;2022-12-18T05:05:22;-6.30;99.90
54409;DHT22;40315;48.620;9.828;2022-12-18T05:10:18;-6.20;99.90
54409;DHT22;40315;48.620;9.828;2022-12-18T05:15:29;-6.30;99.90
54409;DHT22;40315;48.620;9.828;2022-12-18T05:17:56;-6.30;99.90
54409;DHT22;40315;48.620;9.828;2022-12-18T05:20:23;-6.30;99.90
54409;DHT22;40315;48.620;9.828;2022-12-18T05:22:52;-6.20;99.90
54409;DHT22;40315;48.620;9.828;2022-12-18T05:27:47;-6.20;99.90
54409;DHT22;40315;48.620;9.828;2022-12-18T05:32:42;-6.20;99.90
54409;DHT22;40315;48.620;9.828;2022-12-18T05:35:10;-6.30;99.90
54409;DHT22;40315;48.620;9.828;2022-12-18T05:37:37;-6.20;99.90
54409;DHT22;40315;48.620;9.828;2022-12-18T05:40:07;-6.20;99.90
54409;DHT22;40315;48.620;9.828;2022-12-18T05:42:34;-6.20;99.90
54409;DHT22;40315;48.620;9.828;2022-12-18T05:45:01;-6.20;99.90
54409;DHT22;40315;48.620;9.828;2022-12-18T05:47:28;-6.20;99.90
54409;DHT22;40315;48.620;9.828;2022-12-18T05:49:55;-5.40;99.90
54409;DHT22;40315;48.620;9.828;2022-12-18T05:52:23;-6.20;99.90
54409;DHT22;40315;48.620;9.828;2022-12-18T05:54:50;-6.20;99.90
54409;DHT22;40315;48.620;9.828;2022-12-18T05:59:48;-6.30;99.90
54409;DHT22;40315;48.620;9.828;2022-12-18T06:04:42;-6.30;99.90
54409;DHT22;40315;48.620;9.828;2022-12-18T06:07:09;-6.30;99.90
54409;DHT22;40315;48.620;9.828;2022-12-18T06:09:36;-6.30;99.90
54409;DHT22;40315;48.620;9.828;2022-12-18T06:12:06;-6.30;99.90
54409;DHT22;40315;48.620;9.828;2022-12-18T06:17:01;-6.30;99.90
54409;DHT22;40315;48.620;9.828;2022-12-18T06:19:28;-6.20;99.90
54409;DHT22;40315;48.620;9.828;2022-12-18T06:21:55;-6.20;99.90
54409;DHT22;40315;48.620;9.828;2022-12-18T06:24:26;-6.20;99.90
54409;DHT22;40315;48.620;9.828;2022-12-18T06:26:53;-6.20;99.90
54409;DHT22;40315;48.620;9.828;2022-12-18T06:36:44;-6.20;99.90
54409;DHT22;40315;48.620;9.828;2022-12-18T06:39:10;-6.20;99.90
54409;DHT22;40315;48.620;9.828;2022-12-18T06:41:37;-6.20;99.90
54409;DHT22;40315;48.620;9.828;2022-12-18T06:44:04;-6.20;99.90
54409;DHT22;40315;48.620;9.828;2022-12-18T06:46:32;-6.20;99.90
54409;DHT22;40315;48.620;9.828;2022-12-18T06:51:27;-6.20;99.90
54409;DHT22;40315;48.620;9.828;2022-12-18T06:53:54;-6.20;99.90
54409;DHT22;40315;48.620;9.828;2022-12-18T06:56:24;-6.30;99.90
54409;DHT22;40315;48.620;9.828;2022-12-18T06:58:53;-6.30;99.90
54409;DHT22;40315;48.620;9.828;2022-12-18T07:01:21;-6.20;99.90
54409;DHT22;40315;48.620;9.828;2022-12-18T07:03:51;-6.30;99.90
54409;DHT22;40315;48.620;9.828;2022-12-18T07:06:25;-6.20;99.90
54409;DHT22;40315;48.620;9.828;2022-12-18T07:08:53;-6.20;99.90
54409;DHT22;40315;48.620;9.828;2022-12-18T07:13:48;-6.20;99.90
54409;DHT22;40315;48.620;9.828;2022-12-18T07:16:18;-6.20;99.90
54409;DHT22;40315;48.620;9.828;2022-12-18T07:18:45;-6.20;99.90
54409;DHT22;40315;48.620;9.828;2022-12-18T07:21:13;-6.20;99.90
54409;DHT22;40315;48.620;9.828;2022-12-18T07:26:10;-6.10;99.90
54409;DHT22;40315;48.620;9.828;2022-12-18T07:28:39;-6.10;99.90
54409;DHT22;40315;48.620;9.828;2022-12-18T07:31:08;-6.10;99.90
54409;DHT22;40315;48.620;9.828;2022-12-18T07:33:36;-6.10;99.90
54409;DHT22;40315;48.620;9.828;2022-12-18T07:36:04;-6.10;99.90
54409;DHT22;40315;48.620;9.828;2022-12-18T07:38:35;-6.10;99.90
54409;DHT22;40315;48.620;9.828;2022-12-18T07:41:07;-6.10;99.90
54409;DHT22;40315;48.620;9.828;2022-12-18T07:43:35;-6.10;99.90
54409;DHT22;40315;48.620;9.828;2022-12-18T07:46:03;-6.10;99.90
54409;DHT22;40315;48.620;9.828;2022-12-18T07:48:30;-6.10;99.90
54409;DHT22;40315;48.620;9.828;2022-12-18T07:50:58;-6.00;99.90
54409;DHT22;40315;48.620;9.828;2022-12-18T07:55:55;-6.00;99.90
54409;DHT22;40315;48.620;9.828;2022-12-18T08:03:19;-5.90;99.90
54409;DHT22;40315;48.620;9.828;2022-12-18T08:08:16;-5.90;99.90
54409;DHT22;40315;48.620;9.828;2022-12-18T08:10:42;-5.90;99.90
54409;DHT22;40315;48.620;9.828;2022-12-18T08:13:09;-5.90;99.90
54409;DHT22;40315;48.620;9.828;2022-12-18T08:15:40;-5.80;99.90
54409;DHT22;40315;48.620;9.828;2022-12-18T08:18:07;-5.80;99.90
54409;DHT22;40315;48.620;9.828;2022-12-18T08:20:36;-5.80;99.90
54409;DHT22;40315;48.620;9.828;2022-12-18T08:23:03;-5.70;99.90
54409;DHT22;40315;48.620;9.828;2022-12-18T08:25:30;-5.70;99.90
54409;DHT22;40315;48.620;9.828;2022-12-18T08:27:57;-5.70;99.90
54409;DHT22;40315;48.620;9.828;2022-12-18T08:30:24;-5.70;99.90
54409;DHT22;40315;48.620;9.828;2022-12-18T08:32:53;-5.70;99.90
54409;DHT22;40315;48.620;9.828;2022-12-18T08:35:22;-5.60;99.90
54409;DHT22;40315;48.620;9.828;2022-12-18T08:37:49;-5.60;99.90
54409;DHT22;40315;48.620;9.828;2022-12-18T08:40:19;-2.70;99.90
54409;DHT22;40315;48.620;9.828;2022-12-18T08:42:48;-5.60;99.90
54409;DHT22;40315;48.620;9.828;2022-12-18T08:45:33;-5.50;99.90
54409;DHT22;40315;48.620;9.828;2022-12-18T08:48:07;-5.10;99.90
54409;DHT22;40315;48.620;9.828;2022-12-18T08:50:34;-5.50;99.90
54409;DHT22;40315;48.620;9.828;2022-12-18T08:53:02;-5.50;99.90
54409;DHT22;40315;48.620;9.828;2022-12-18T08:55:29;-5.50;99.90
54409;DHT22;40315;48.620;9.828;2022-12-18T08:57:56;-5.50;99.90
54409;DHT22;40315;48.620;9.828;2022-12-18T09:00:25;-5.40;99.90
54409;DHT22;40315;48.620;9.828;2022-12-18T09:02:54;-5.40;99.90
54409;DHT22;40315;48.620;9.828;2022-12-18T09:05:22;-5.40;99.90
54409;DHT22;40315;48.620;9.828;2022-12-18T09:07:49;-4.40;99.90
54409;DHT22;40315;48.620;9.828;2022-12-18T09:10:16;-5.40;99.90
54409;DHT22;40315;48.620;9.828;2022-12-18T09:12:44;-5.30;99.90
54409;DHT22;40315;48.620;9.828;2022-12-18T09:15:11;-5.30;99.90
54409;DHT22;40315;48.620;9.828;2022-12-18T09:17:38;-5.60;99.90
54409;DHT22;40315;48.620;9.828;2022-12-18T09:20:06;-5.20;99.90
54409;DHT22;40315;48.620;9.828;2022-12-18T09:22:36;-5.20;99.90
54409;DHT22;40315;48.620;9.828;2022-12-18T09:25:04;-5.20;99.90
54409;DHT22;40315;48.620;9.828;2022-12-18T09:27:33;-5.20;99.90
54409;DHT22;40315;48.620;9.828;2022-12-18T09:30:00;-5.20;99.90
54409;DHT22;40315;48.620;9.828;2022-12-18T09:32:27;-5.20;99.90
54409;DHT22;40315;48.620;9.828;2022-12-18T09:34:54;-5.20;99.90
54409;DHT22;40315;48.620;9.828;2022-12-18T09:37:21;-5.20;99.90
54409;DHT22;40315;48.620;9.828;2022-12-18T09:39:52;-5.10;99.90
54409;DHT22;40315;48.620;9.828;2022-12-18T09:42:22;-5.10;99.90
54409;DHT22;40315;48.620;9.828;2022-12-18T09:44:50;-5.20;99.90
54409;DHT22;40315;48.620;9.828;2022-12-18T09:47:24;-5.10;99.90
54409;DHT22;40315;48.620;9.828;2022-12-18T09:49:55;-5.10;99.90
54409;DHT22;40315;48.620;9.828;2022-12-18T09:52:26;-5.10;99.90
54409;DHT22;40315;48.620;9.828;2022-12-18T09:54:59;-5.10;99.90
54409;DHT22;40315;48.620;9.828;2022-12-18T09:57:31;-5.10;99.90
54409;DHT22;40315;48.620;9.828;2022-12-18T10:00:06;-5.00;99.90
54409;DHT22;40315;48.620;9.828;2022-12-18T10:02:37;-5.00;99.90
54409;DHT22;40315;48.620;9.828;2022-12-18T10:05:11;-5.00;99.90
54409;DHT22;40315;48.620;9.828;2022-12-18T10:07:53;-4.90;99.90
54409;DHT22;40315;48.620;9.828;2022-12-18T10:10:33;-4.90;99.90
54409;DHT22;40315;48.620;9.828;2022-12-18T10:13:08;-4.90;99.90
54409;DHT22;40315;48.620;9.828;2022-12-18T10:15:47;-4.90;99.90
54409;DHT22;40315;48.620;9.828;2022-12-18T10:18:25;-4.80;99.90
54409;DHT22;40315;48.620;9.828;2022-12-18T10:20:59;-4.90;99.90
54409;DHT22;40315;48.620;9.828;2022-12-18T10:23:33;-4.80;99.90
54409;DHT22;40315;48.620;9.828;2022-12-18T10:26:10;-4.80;99.90
54409;DHT22;40315;48.620;9.828;2022-12-18T10:28:41;-4.70;99.90
54409;DHT22;40315;48.620;9.828;2022-12-18T10:31:17;-2.20;99.90
54409;DHT22;40315;48.620;9.828;2022-12-18T10:33:45;-4.70;99.90
54409;DHT22;40315;48.620;9.828;2022-12-18T10:36:12;-4.60;99.90
54409;DHT22;40315;48.620;9.828;2022-12-18T10:38:39;-4.60;99.90
54409;DHT22;40315;48.620;9.828;2022-12-18T10:41:24;-4.60;99.90
54409;DHT22;40315;48.620;9.828;2022-12-18T10:44:11;-4.60;99.90
54409;DHT22;40315;48.620;9.828;2022-12-18T10:46:39;-4.60;99.90
54409;DHT22;40315;48.620;9.828;2022-12-18T10:49:19;-4.60;99.90
54409;DHT22;40315;48.620;9.828;2022-12-18T10:51:46;-4.50;99.90
54409;DHT22;40315;48.620;9.828;2022-12-18T10:54:16;-4.50;99.90
54409;DHT22;40315;48.620;9.828;2022-12-18T10:56:45;-4.50;99.90
54409;DHT22;40315;48.620;9.828;2022-12-18T10:59:14;-4.40;99.90
54409;DHT22;40315;48.620;9.828;2022-12-18T11:01:50;-4.40;99.90
54409;DHT22;40315;48.620;9.828;2022-12-18T11:04:20;-4.30;99.90
54409;DHT22;40315;48.620;9.828;2022-12-18T11:06:56;-4.30;99.90
54409;DHT22;40315;48.620;9.828;2022-12-18T11:09:27;-4.30;99.90
54409;DHT22;40315;48.620;9.828;2022-12-18T11:11:58;-4.30;99.90
54409;DHT22;40315;48.620;9.828;2022-12-18T11:14:27;-4.30;99.90
54409;DHT22;40315;48.620;9.828;2022-12-18T11:16:58;-4.30;99.90
54409;DHT22;40315;48.620;9.828;2022-12-18T11:19:34;-4.30;99.90
54409;DHT22;40315;48.620;9.828;2022-12-18T11:22:03;-4.20;99.90
54409;DHT22;40315;48.620;9.828;2022-12-18T11:24:32;-3.40;99.90
54409;DHT22;40315;48.620;9.828;2022-12-18T11:27:03;-4.20;99.90
54409;DHT22;40315;48.620;9.828;2022-12-18T11:29:35;-4.20;99.90
54409;DHT22;40315;48.620;9.828;2022-12-18T11:32:34;-3.50;99.90
54409;DHT22;40315;48.620;9.828;2022-12-18T11:35:09;-4.20;99.90
54409;DHT22;40315;48.620;9.828;2022-12-18T11:37:42;-4.20;99.90
54409;DHT22;40315;48.620;9.828;2022-12-18T11:40:13;-3.40;99.90
54409;DHT22;40315;48.620;9.828;2022-12-18T11:42:46;-4.10;99.90
54409;DHT22;40315;48.620;9.828;2022-12-18T11:45:29;-4.00;99.90
54409;DHT22;40315;48.620;9.828;2022-12-18T11:48:02;-4.10;99.90
54409;DHT22;40315;48.620;9.828;2022-12-18T11:50:37;-4.10;99.90
54409;DHT22;40315;48.620;9.828;2022-12-18T11:53:10;-4.00;99.90
54409;DHT22;40315;48.620;9.828;2022-12-18T11:55:51;-4.00;99.90
54409;DHT22;40315;48.620;9.828;2022-12-18T11:58:36;-3.80;99.90
54409;DHT22;40315;48.620;9.828;2022-12-18T12:01:19;-3.40;99.90
54409;DHT22;40315;48.620;9.828;2022-12-18T12:04:13;-3.90;99.90
54409;DHT22;40315;48.620;9.828;2022-12-18T12:06:49;-3.90;99.90
54409;DHT22;40315;48.620;9.828;2022-12-18T12:09:24;-3.90;99.90
54409;DHT22;40315;48.620;9.828;2022-12-18T12:12:07;-3.20;99.90
54409;DHT22;40315;48.620;9.828;2022-12-18T12:14:46;-3.90;99.90
54409;DHT22;40315;48.620;9.828;2022-12-18T12:17:24;-3.90;99.90
54409;DHT22;40315;48.620;9.828;2022-12-18T12:20:04;-3.80;99.90
54409;DHT22;40315;48.620;9.828;2022-12-18T12:22:39;-3.80;99.90
54409;DHT22;40315;48.620;9.828;2022-12-18T12:25:20;-3.90;99.90
54409;DHT22;40315;48.620;9.828;2022-12-18T12:27:55;-3.90;99.90
54409;DHT22;40315;48.620;9.828;2022-12-18T12:30:32;-3.90;99.90
54409;DHT22;40315;48.620;9.828;2022-12-18T12:33:17;-3.90;99.90
54409;DHT22;40315;48.620;9.828;2022-12-18T12:38:23;-3.90;99.90
54409;DHT22;40315;48.620;9.828;2022-12-18T12:40:54;-4.00;99.90
54409;DHT22;40315;48.620;9.828;2022-12-18T12:43:32;-4.00;99.90
54409;DHT22;40315;48.620;9.828;2022-12-18T12:46:06;-3.90;99.90
54409;DHT22;40315;48.620;9.828;2022-12-18T12:48:40;-3.90;99.90
54409;DHT22;40315;48.620;9.828;2022-12-18T12:51:16;-3.90;99.90
54409;DHT22;40315;48.620;9.828;2022-12-18T12:53:45;-3.90;99.90
54409;DHT22;40315;48.620;9.828;2022-12-18T12:56:17;-3.90;99.90
54409;DHT22;40315;48.620;9.828;2022-12-18T12:58:55;-4.00;99.90
54409;DHT22;40315;48.620;9.828;2022-12-18T13:01:35;-4.00;99.90
54409;DHT22;40315;48.620;9.828;2022-12-18T13:04:12;-4.00;99.90
54409;DHT22;40315;48.620;9.828;2022-12-18T13:06:46;-4.00;99.90
54409;DHT22;40315;48.620;9.828;2022-12-18T13:11:45;-4.00;99.90
54409;DHT22;40315;48.620;9.828;2022-12-18T13:14:32;-3.90;99.90
54409;DHT22;40315;48.620;9.828;2022-12-18T13:17:27;-3.90;99.90
54409;DHT22;40315;48.620;9.828;2022-12-18T13:20:11;-3.90;99.90
54409;DHT22;40315;48.620;9.828;2022-12-18T13:22:43;-3.90;99.90
54409;DHT22;40315;48.620;9.828;2022-12-18T13:25:34;-3.90;99.90
54409;DHT22;40315;48.620;9.828;2022-12-18T13:28:05;-3.90;99.90
54409;DHT22;40315;48.620;9.828;2022-12-18T13:33:40;-3.90;99.90
54409;DHT22;40315;48.620;9.828;2022-12-18T13:46:21;-4.00;99.90
54409;DHT22;40315;48.620;9.828;2022-12-18T13:48:54;-4.00;99.90
54409;DHT22;40315;48.620;9.828;2022-12-18T13:51:25;-4.10;99.90
54409;DHT22;40315;48.620;9.828;2022-12-18T13:53:55;-4.20;99.90
54409;DHT22;40315;48.620;9.828;2022-12-18T13:56:26;-4.10;99.90
54409;DHT22;40315;48.620;9.828;2022-12-18T13:59:08;-4.10;99.90
54409;DHT22;40315;48.620;9.828;2022-12-18T14:21:32;-4.10;99.90
54409;DHT22;40315;48.620;9.828;2022-12-18T14:24:06;-4.10;99.90
54409;DHT22;40315;48.620;9.828;2022-12-18T14:26:39;-4.10;99.90
54409;DHT22;40315;48.620;9.828;2022-12-18T14:29:20;-4.20;99.90
54409;DHT22;40315;48.620;9.828;2022-12-18T14:32:12;-4.20;99.90
54409;DHT22;40315;48.620;9.828;2022-12-18T14:34:42;-4.10;99.90
54409;DHT22;40315;48.620;9.828;2022-12-18T14:39:39;-4.30;99.90
54409;DHT22;40315;48.620;9.828;2022-12-18T14:42:10;-4.30;99.90
54409;DHT22;40315;48.620;9.828;2022-12-18T14:44:38;-4.30;99.90
54409;DHT22;40315;48.620;9.828;2022-12-18T14:47:12;-4.40;99.90
54409;DHT22;40315;48.620;9.828;2022-12-18T14:49:41;-4.40;99.90
54409;DHT22;40315;48.620;9.828;2022-12-18T14:52:25;-4.50;99.90
54409;DHT22;40315;48.620;9.828;2022-12-18T14:57:24;-4.50;99.90
54409;DHT22;40315;48.620;9.828;2022-12-18T14:59:52;-4.50;99.90
54409;DHT22;40315;48.620;9.828;2022-12-18T15:02:22;-4.50;99.90
54409;DHT22;40315;48.620;9.828;2022-12-18T15:05:00;-4.50;99.90
54409;DHT22;40315;48.620;9.828;2022-12-18T15:07:40;-4.50;99.90
54409;DHT22;40315;48.620;9.828;2022-12-18T15:10:11;-4.60;99.90
54409;DHT22;40315;48.620;9.828;2022-12-18T15:12:42;-4.60;99.90
54409;DHT22;40315;48.620;9.828;2022-12-18T15:15:44;-4.70;99.90
54409;DHT22;40315;48.620;9.828;2022-12-18T15:18:13;-4.60;99.90
54409;DHT22;40315;48.620;9.828;2022-12-18T15:20:44;-4.60;99.90
54409;DHT22;40315;48.620;9.828;2022-12-18T15:23:19;-4.60;99.90
54409;DHT22;40315;48.620;9.828;2022-12-18T15:25:48;-4.60;99.90
54409;DHT22;40315;48.620;9.828;2022-12-18T15:28:22;-4.60;99.90
54409;DHT22;40315;48.620;9.828;2022-12-18T15:31:01;-4.60;99.90
54409;DHT22;40315;48.620;9.828;2022-12-18T15:33:31;-4.60;99.90
54409;DHT22;40315;48.620;9.828;2022-12-18T15:36:01;-4.60;99.90
54409;DHT22;40315;48.620;9.828;2022-12-18T15:40:57;-4.70;99.90
54409;DHT22;40315;48.620;9.828;2022-12-18T15:43:25;-4.70;99.90
54409;DHT22;40315;48.620;9.828;2022-12-18T15:46:02;-4.70;99.90
54409;DHT22;40315;48.620;9.828;2022-12-18T15:48:33;-4.70;99.90
54409;DHT22;40315;48.620;9.828;2022-12-18T15:51:04;-4.60;99.90
54409;DHT22;40315;48.620;9.828;2022-12-18T15:56:01;-4.60;99.90
54409;DHT22;40315;48.620;9.828;2022-12-18T15:58:45;-4.60;99.90
54409;DHT22;40315;48.620;9.828;2022-12-18T16:01:12;-4.60;99.90
54409;DHT22;40315;48.620;9.828;2022-12-18T16:03:39;-4.70;99.90
54409;DHT22;40315;48.620;9.828;2022-12-18T16:06:08;-4.70;99.90
54409;DHT22;40315;48.620;9.828;2022-12-18T16:11:15;-4.90;99.90
54409;DHT22;40315;48.620;9.828;2022-12-18T16:18:43;-4.80;99.90
54409;DHT22;40315;48.620;9.828;2022-12-18T16:21:11;-4.90;99.90
54409;DHT22;40315;48.620;9.828;2022-12-18T16:31:05;-4.90;99.90
54409;DHT22;40315;48.620;9.828;2022-12-18T16:33:32;-5.00;99.90
54409;DHT22;40315;48.620;9.828;2022-12-18T16:38:26;-5.00;99.90
54409;DHT22;40315;48.620;9.828;2022-12-18T16:43:39;-4.90;99.90
54409;DHT22;40315;48.620;9.828;2022-12-18T16:46:06;-4.80;99.90
54409;DHT22;40315;48.620;9.828;2022-12-18T16:51:03;-4.90;99.90
54409;DHT22;40315;48.620;9.828;2022-12-18T16:58:29;-5.00;99.90
54409;DHT22;40315;48.620;9.828;2022-12-18T17:10:49;-5.10;99.90
54409;DHT22;40315;48.620;9.828;2022-12-18T17:15:45;-5.00;99.90
54409;DHT22;40315;48.620;9.828;2022-12-18T17:18:12;-5.00;99.90
54409;DHT22;40315;48.620;9.828;2022-12-18T17:20:39;-5.00;99.90
54409;DHT22;40315;48.620;9.828;2022-12-18T17:23:06;-4.90;99.90
54409;DHT22;40315;48.620;9.828;2022-12-18T17:25:34;-5.00;99.90
54409;DHT22;40315;48.620;9.828;2022-12-18T17:33:00;-5.10;99.90
54409;DHT22;40315;48.620;9.828;2022-12-18T17:35:27;-5.10;99.90
54409;DHT22;40315;48.620;9.828;2022-12-18T17:52:43;-3.70;99.90
54409;DHT22;40315;48.620;9.828;2022-12-18T17:55:10;-5.10;99.90
54409;DHT22;40315;48.620;9.828;2022-12-18T17:57:38;-5.10;99.90
54409;DHT22;40315;48.620;9.828;2022-12-18T18:00:08;-5.10;99.90
54409;DHT22;40315;48.620;9.828;2022-12-18T18:02:36;-5.10;99.90
54409;DHT22;40315;48.620;9.828;2022-12-18T18:07:32;-5.10;99.90
54409;DHT22;40315;48.620;9.828;2022-12-18T18:09:59;-5.10;99.90
54409;DHT22;40315;48.620;9.828;2022-12-18T18:12:27;-5.10;99.90
54409;DHT22;40315;48.620;9.828;2022-12-18T18:15:11;-5.00;99.90
54409;DHT22;40315;48.620;9.828;2022-12-18T18:17:38;-5.00;99.90
54409;DHT22;40315;48.620;9.828;2022-12-18T18:20:08;-5.00;99.90
54409;DHT22;40315;48.620;9.828;2022-12-18T18:22:37;-5.00;99.90
54409;DHT22;40315;48.620;9.828;2022-12-18T18:25:05;-5.00;99.90
54409;DHT22;40315;48.620;9.828;2022-12-18T18:27:35;-5.00;99.90
54409;DHT22;40315;48.620;9.828;2022-12-18T18:30:02;-5.00;99.90
54409;DHT22;40315;48.620;9.828;2022-12-18T18:32:30;-5.00;99.90
54409;DHT22;40315;48.620;9.828;2022-12-18T18:34:57;-5.10;99.90
54409;DHT22;40315;48.620;9.828;2022-12-18T18:37:27;-4.80;99.90
54409;DHT22;40315;48.620;9.828;2022-12-18T18:39:54;-5.00;99.90
54409;DHT22;40315;48.620;9.828;2022-12-18T18:42:22;-5.00;99.90
54409;DHT22;40315;48.620;9.828;2022-12-18T18:44:48;-5.00;99.90
54409;DHT22;40315;48.620;9.828;2022-12-18T18:47:16;-5.00;99.90
54409;DHT22;40315;48.620;9.828;2022-12-18T18:52:10;-5.00;99.90
54409;DHT22;40315;48.620;9.828;2022-12-18T18:54:39;-5.00;99.90
54409;DHT22;40315;48.620;9.828;2022-12-18T18:57:06;-5.00;99.90